sensor_id;sensor_type;location;lat;lon;timestamp;P1;durP1;ratioP1;P2;durP2;ratioP2
22826;SDS011;11580;52.562;13.418;2023-07-29T00:01:59;6.63;;;6.13;;
22826;SDS011;11580;52.562;13.418;2023-07-29T00:04:26;6.17;;;5.73;;
22826;SDS011;11580;52.562;13.418;2023-07-29T00:06:53;6.73;;;6.20;;
22826;SDS011;11580;52.562;13.418;2023-07-29T00:09:21;6.80;;;6.30;;
22826;SDS011;11580;52.562;13.418;2023-07-29T00:11:49;5.90;;;5.40;;
22826;SDS011;11580;52.562;13.418;2023-07-29T00:14:16;6.50;;;6.07;;
22826;SDS011;11580;52.562;13.418;2023-07-29T00:16:43;7.27;;;6.77;;
22826;SDS011;11580;52.562;13.418;2023-07-29T00:19:10;6.07;;;5.67;;
22826;SDS011;11580;52.562;13.418;2023-07-29T00:21:37;5.57;;;5.17;;
22826;SDS011;11580;52.562;13.418;2023-07-29T00:24:05;6.73;;;6.30;;
22826;SDS011;11580;52.562;13.418;2023-07-29T00:26:33;6.80;;;6.13;;
22826;SDS011;11580;52.562;13.418;2023-07-29T00:29:00;6.67;;;6.10;;
22826;SDS011;11580;52.562;13.418;2023-07-29T00:31:27;6.93;;;6.43;;
22826;SDS011;11580;52.562;13.418;2023-07-29T00:33:56;7.03;;;6.53;;
22826;SDS011;11580;52.562;13.418;2023-07-29T00:36:24;7.60;;;6.87;;
22826;SDS011;11580;52.562;13.418;2023-07-29T00:38:51;7.50;;;7.00;;
22826;SDS011;11580;52.562;13.418;2023-07-29T00:41:22;7.27;;;6.77;;
22826;SDS011;11580;52.562;13.418;2023-07-29T00:43:53;7.90;;;7.30;;
22826;SDS011;11580;52.562;13.418;2023-07-29T00:46:21;10.60;;;7.83;;
22826;SDS011;11580;52.562;13.418;2023-07-29T00:48:49;8.50;;;7.80;;
22826;SDS011;11580;52.562;13.418;2023-07-29T00:51:16;8.40;;;7.80;;
22826;SDS011;11580;52.562;13.418;2023-07-29T00:53:43;8.47;;;7.80;;
22826;SDS011;11580;52.562;13.418;2023-07-29T00:56:11;7.83;;;7.23;;
22826;SDS011;11580;52.562;13.418;2023-07-29T00:58:39;7.27;;;6.77;;
22826;SDS011;11580;52.562;13.418;2023-07-29T01:01:08;7.77;;;7.17;;
22826;SDS011;11580;52.562;13.418;2023-07-29T01:03:35;8.03;;;7.43;;
22826;SDS011;11580;52.562;13.418;2023-07-29T01:06:07;7.90;;;7.30;;
22826;SDS011;11580;52.562;13.418;2023-07-29T01:08:46;7.67;;;7.07;;
22826;SDS011;11580;52.562;13.418;2023-07-29T01:11:31;7.10;;;6.47;;
22826;SDS011;11580;52.562;13.418;2023-07-29T01:14:10;8.00;;;7.40;;
22826;SDS011;11580;52.562;13.418;2023-07-29T01:16:52;8.17;;;7.57;;
22826;SDS011;11580;52.562;13.418;2023-07-29T01:19:30;7.70;;;7.20;;
22826;SDS011;11580;52.562;13.418;2023-07-29T01:22:14;8.53;;;7.93;;
22826;SDS011;11580;52.562;13.418;2023-07-29T01:24:44;7.60;;;7.03;;
22826;SDS011;11580;52.562;13.418;2023-07-29T01:27:12;8.80;;;8.20;;
22826;SDS011;11580;52.562;13.418;2023-07-29T01:29:39;9.60;;;8.90;;
22826;SDS011;11580;52.562;13.418;2023-07-29T01:32:08;10.20;;;9.20;;
22826;SDS011;11580;52.562;13.418;2023-07-29T01:34:45;7.93;;;7.43;;
22826;SDS011;11580;52.562;13.418;2023-07-29T01:37:22;8.40;;;7.80;;
22826;SDS011;11580;52.562;13.418;2023-07-29T01:39:57;8.70;;;8.00;;
22826;SDS011;11580;52.562;13.418;2023-07-29T01:42:28;7.70;;;7.10;;
22826;SDS011;11580;52.562;13.418;2023-07-29T01:44:56;7.67;;;7.07;;
22826;SDS011;11580;52.562;13.418;2023-07-29T01:47:24;8.53;;;7.93;;
22826;SDS011;11580;52.562;13.418;2023-07-29T01:49:54;7.80;;;7.30;;
22826;SDS011;11580;52.562;13.418;2023-07-29T01:52:21;8.27;;;7.67;;
22826;SDS011;11580;52.562;13.418;2023-07-29T01:54:48;7.93;;;7.33;;
22826;SDS011;11580;52.562;13.418;2023-07-29T01:57:17;9.07;;;8.37;;
22826;SDS011;11580;52.562;13.418;2023-07-29T01:59:44;7.43;;;6.93;;
22826;SDS011;11580;52.562;13.418;2023-07-29T02:02:11;8.90;;;8.20;;
22826;SDS011;11580;52.562;13.418;2023-07-29T02:04:39;8.57;;;7.97;;
22826;SDS011;11580;52.562;13.418;2023-07-29T02:07:06;8.27;;;7.67;;
22826;SDS011;11580;52.562;13.418;2023-07-29T02:09:33;7.93;;;7.33;;
22826;SDS011;11580;52.562;13.418;2023-07-29T02:12:00;8.90;;;8.20;;
22826;SDS011;11580;52.562;13.418;2023-07-29T02:14:37;8.50;;;7.90;;
22826;SDS011;11580;52.562;13.418;2023-07-29T02:17:05;8.77;;;8.07;;
22826;SDS011;11580;52.562;13.418;2023-07-29T02:19:32;7.90;;;7.40;;
22826;SDS011;11580;52.562;13.418;2023-07-29T02:21:59;8.77;;;8.17;;
22826;SDS011;11580;52.562;13.418;2023-07-29T02:24:26;8.53;;;7.93;;
22826;SDS011;11580;52.562;13.418;2023-07-29T02:26:54;8.40;;;7.67;;
22826;SDS011;11580;52.562;13.418;2023-07-29T02:29:21;8.20;;;7.60;;
22826;SDS011;11580;52.562;13.418;2023-07-29T02:31:50;8.50;;;7.90;;
22826;SDS011;11580;52.562;13.418;2023-07-29T02:34:17;8.80;;;8.10;;
22826;SDS011;11580;52.562;13.418;2023-07-29T02:36:44;9.20;;;8.57;;
22826;SDS011;11580;52.562;13.418;2023-07-29T02:39:12;8.53;;;7.93;;
22826;SDS011;11580;52.562;13.418;2023-07-29T02:41:39;8.37;;;7.70;;
22826;SDS011;11580;52.562;13.418;2023-07-29T02:44:06;8.50;;;7.80;;
22826;SDS011;11580;52.562;13.418;2023-07-29T02:46:33;8.87;;;8.17;;
22826;SDS011;11580;52.562;13.418;2023-07-29T02:49:01;9.83;;;9.03;;
22826;SDS011;11580;52.562;13.418;2023-07-29T02:51:29;9.60;;;8.83;;
22826;SDS011;11580;52.562;13.418;2023-07-29T02:53:57;9.57;;;8.87;;
22826;SDS011;11580;52.562;13.418;2023-07-29T02:56:24;9.17;;;8.47;;
22826;SDS011;11580;52.562;13.418;2023-07-29T02:58:51;9.30;;;8.60;;
22826;SDS011;11580;52.562;13.418;2023-07-29T03:01:18;9.43;;;8.67;;
22826;SDS011;11580;52.562;13.418;2023-07-29T03:03:46;8.90;;;8.27;;
22826;SDS011;11580;52.562;13.418;2023-07-29T03:06:14;9.23;;;8.57;;
22826;SDS011;11580;52.562;13.418;2023-07-29T03:08:42;8.93;;;8.33;;
22826;SDS011;11580;52.562;13.418;2023-07-29T03:11:11;8.97;;;8.27;;
22826;SDS011;11580;52.562;13.418;2023-07-29T03:13:41;8.90;;;8.20;;
22826;SDS011;11580;52.562;13.418;2023-07-29T03:16:09;8.23;;;7.63;;
22826;SDS011;11580;52.562;13.418;2023-07-29T03:18:39;8.90;;;8.30;;
22826;SDS011;11580;52.562;13.418;2023-07-29T03:21:07;8.50;;;7.87;;
22826;SDS011;11580;52.562;13.418;2023-07-29T03:23:37;9.67;;;9.00;;
22826;SDS011;11580;52.562;13.418;2023-07-29T03:26:05;8.83;;;8.23;;
22826;SDS011;11580;52.562;13.418;2023-07-29T03:28:36;8.67;;;7.97;;
22826;SDS011;11580;52.562;13.418;2023-07-29T03:31:05;9.87;;;9.10;;
22826;SDS011;11580;52.562;13.418;2023-07-29T03:33:33;9.33;;;8.63;;
22826;SDS011;11580;52.562;13.418;2023-07-29T03:36:00;9.63;;;8.83;;
22826;SDS011;11580;52.562;13.418;2023-07-29T03:38:28;9.50;;;8.60;;
22826;SDS011;11580;52.562;13.418;2023-07-29T03:40:56;8.03;;;7.53;;
22826;SDS011;11580;52.562;13.418;2023-07-29T03:43:24;9.40;;;8.73;;
22826;SDS011;11580;52.562;13.418;2023-07-29T03:45:54;8.20;;;7.60;;
22826;SDS011;11580;52.562;13.418;2023-07-29T03:48:22;8.93;;;8.23;;
22826;SDS011;11580;52.562;13.418;2023-07-29T03:50:49;10.10;;;9.30;;
22826;SDS011;11580;52.562;13.418;2023-07-29T03:53:16;9.77;;;9.07;;
22826;SDS011;11580;52.562;13.418;2023-07-29T03:55:43;8.70;;;8.10;;
22826;SDS011;11580;52.562;13.418;2023-07-29T03:58:12;9.37;;;8.63;;
22826;SDS011;11580;52.562;13.418;2023-07-29T04:00:39;9.23;;;8.33;;
22826;SDS011;11580;52.562;13.418;2023-07-29T04:03:06;9.40;;;8.60;;
22826;SDS011;11580;52.562;13.418;2023-07-29T04:05:35;8.10;;;7.50;;
22826;SDS011;11580;52.562;13.418;2023-07-29T04:08:02;8.20;;;7.60;;
22826;SDS011;11580;52.562;13.418;2023-07-29T04:10:30;8.10;;;7.50;;
22826;SDS011;11580;52.562;13.418;2023-07-29T04:12:57;8.00;;;7.50;;
22826;SDS011;11580;52.562;13.418;2023-07-29T04:15:26;8.13;;;7.20;;
22826;SDS011;11580;52.562;13.418;2023-07-29T04:17:53;7.70;;;7.20;;
22826;SDS011;11580;52.562;13.418;2023-07-29T04:20:20;8.73;;;7.90;;
22826;SDS011;11580;52.562;13.418;2023-07-29T04:22:48;8.00;;;7.50;;
22826;SDS011;11580;52.562;13.418;2023-07-29T04:25:15;8.83;;;8.10;;
22826;SDS011;11580;52.562;13.418;2023-07-29T04:27:42;7.60;;;7.10;;
22826;SDS011;11580;52.562;13.418;2023-07-29T04:30:10;7.90;;;7.30;;
22826;SDS011;11580;52.562;13.418;2023-07-29T04:32:39;8.20;;;7.50;;
22826;SDS011;11580;52.562;13.418;2023-07-29T04:35:07;7.70;;;7.20;;
22826;SDS011;11580;52.562;13.418;2023-07-29T04:37:36;8.13;;;7.63;;
22826;SDS011;11580;52.562;13.418;2023-07-29T04:40:03;9.00;;;7.30;;
22826;SDS011;11580;52.562;13.418;2023-07-29T04:42:32;7.50;;;7.00;;
22826;SDS011;11580;52.562;13.418;2023-07-29T04:44:59;7.80;;;7.30;;
22826;SDS011;11580;52.562;13.418;2023-07-29T04:47:26;7.70;;;7.20;;
22826;SDS011;11580;52.562;13.418;2023-07-29T04:49:55;7.10;;;6.70;;
22826;SDS011;11580;52.562;13.418;2023-07-29T04:52:22;6.93;;;6.33;;
22826;SDS011;11580;52.562;13.418;2023-07-29T04:54:49;7.03;;;6.60;;
22826;SDS011;11580;52.562;13.418;2023-07-29T04:57:17;6.33;;;5.93;;
22826;SDS011;11580;52.562;13.418;2023-07-29T04:59:44;7.40;;;6.90;;
22826;SDS011;11580;52.562;13.418;2023-07-29T05:02:11;6.67;;;6.17;;
22826;SDS011;11580;52.562;13.418;2023-07-29T05:04:38;6.37;;;5.80;;
22826;SDS011;11580;52.562;13.418;2023-07-29T05:07:07;6.30;;;5.90;;
22826;SDS011;11580;52.562;13.418;2023-07-29T05:09:34;6.87;;;6.47;;
22826;SDS011;11580;52.562;13.418;2023-07-29T05:12:01;6.47;;;5.97;;
22826;SDS011;11580;52.562;13.418;2023-07-29T05:14:29;6.97;;;6.57;;
22826;SDS011;11580;52.562;13.418;2023-07-29T05:16:56;5.60;;;5.30;;
22826;SDS011;11580;52.562;13.418;2023-07-29T05:19:24;5.93;;;5.53;;
22826;SDS011;11580;52.562;13.418;2023-07-29T05:21:51;6.30;;;5.90;;
22826;SDS011;11580;52.562;13.418;2023-07-29T05:24:19;5.80;;;5.40;;
22826;SDS011;11580;52.562;13.418;2023-07-29T05:26:48;6.00;;;5.60;;
22826;SDS011;11580;52.562;13.418;2023-07-29T05:29:15;5.97;;;5.60;;
22826;SDS011;11580;52.562;13.418;2023-07-29T05:31:42;5.90;;;5.60;;
22826;SDS011;11580;52.562;13.418;2023-07-29T05:34:09;6.70;;;6.30;;
22826;SDS011;11580;52.562;13.418;2023-07-29T05:36:37;6.60;;;6.20;;
22826;SDS011;11580;52.562;13.418;2023-07-29T05:39:04;6.23;;;5.63;;
22826;SDS011;11580;52.562;13.418;2023-07-29T05:41:33;5.93;;;5.53;;
22826;SDS011;11580;52.562;13.418;2023-07-29T05:44:01;5.90;;;5.50;;
22826;SDS011;11580;52.562;13.418;2023-07-29T05:46:28;5.73;;;5.33;;
22826;SDS011;11580;52.562;13.418;2023-07-29T05:48:55;5.57;;;5.27;;
22826;SDS011;11580;52.562;13.418;2023-07-29T05:51:22;5.23;;;4.93;;
22826;SDS011;11580;52.562;13.418;2023-07-29T05:53:49;5.60;;;5.30;;
22826;SDS011;11580;52.562;13.418;2023-07-29T05:56:16;6.07;;;5.67;;
22826;SDS011;11580;52.562;13.418;2023-07-29T05:58:45;5.50;;;5.20;;
22826;SDS011;11580;52.562;13.418;2023-07-29T06:01:12;5.53;;;5.20;;
22826;SDS011;11580;52.562;13.418;2023-07-29T06:03:40;5.20;;;4.80;;
22826;SDS011;11580;52.562;13.418;2023-07-29T06:06:07;5.60;;;5.30;;
22826;SDS011;11580;52.562;13.418;2023-07-29T06:08:34;5.40;;;5.10;;
22826;SDS011;11580;52.562;13.418;2023-07-29T06:11:02;6.20;;;5.80;;
22826;SDS011;11580;52.562;13.418;2023-07-29T06:13:31;5.20;;;4.90;;
22826;SDS011;11580;52.562;13.418;2023-07-29T06:16:00;4.83;;;4.53;;
22826;SDS011;11580;52.562;13.418;2023-07-29T06:18:27;5.30;;;5.00;;
22826;SDS011;11580;52.562;13.418;2023-07-29T06:20:54;5.37;;;5.07;;
22826;SDS011;11580;52.562;13.418;2023-07-29T06:23:21;5.50;;;5.20;;
22826;SDS011;11580;52.562;13.418;2023-07-29T06:25:49;5.00;;;4.70;;
22826;SDS011;11580;52.562;13.418;2023-07-29T06:28:16;5.73;;;5.43;;
22826;SDS011;11580;52.562;13.418;2023-07-29T06:30:43;5.67;;;5.30;;
22826;SDS011;11580;52.562;13.418;2023-07-29T06:33:11;5.07;;;4.77;;
22826;SDS011;11580;52.562;13.418;2023-07-29T06:35:38;5.73;;;5.27;;
22826;SDS011;11580;52.562;13.418;2023-07-29T06:38:07;5.40;;;5.00;;
22826;SDS011;11580;52.562;13.418;2023-07-29T06:40:34;5.63;;;5.33;;
22826;SDS011;11580;52.562;13.418;2023-07-29T06:43:01;5.33;;;5.03;;
22826;SDS011;11580;52.562;13.418;2023-07-29T06:45:28;5.37;;;5.00;;
22826;SDS011;11580;52.562;13.418;2023-07-29T06:47:56;5.20;;;4.80;;
22826;SDS011;11580;52.562;13.418;2023-07-29T06:50:24;4.93;;;4.63;;
22826;SDS011;11580;52.562;13.418;2023-07-29T06:52:51;5.03;;;4.73;;
22826;SDS011;11580;52.562;13.418;2023-07-29T06:55:18;4.90;;;4.60;;
22826;SDS011;11580;52.562;13.418;2023-07-29T06:57:45;5.27;;;4.97;;
22826;SDS011;11580;52.562;13.418;2023-07-29T07:00:13;5.37;;;4.97;;
22826;SDS011;11580;52.562;13.418;2023-07-29T07:02:41;5.67;;;5.27;;
22826;SDS011;11580;52.562;13.418;2023-07-29T07:05:08;4.90;;;4.60;;
22826;SDS011;11580;52.562;13.418;2023-07-29T07:07:37;4.70;;;4.40;;
22826;SDS011;11580;52.562;13.418;2023-07-29T07:10:04;4.93;;;4.63;;
22826;SDS011;11580;52.562;13.418;2023-07-29T07:12:32;5.40;;;5.00;;
22826;SDS011;11580;52.562;13.418;2023-07-29T07:15:00;5.10;;;4.73;;
22826;SDS011;11580;52.562;13.418;2023-07-29T07:17:27;4.60;;;4.30;;
22826;SDS011;11580;52.562;13.418;2023-07-29T07:19:54;5.33;;;4.93;;
22826;SDS011;11580;52.562;13.418;2023-07-29T07:22:21;5.03;;;4.73;;
22826;SDS011;11580;52.562;13.418;2023-07-29T07:24:50;5.00;;;4.70;;
22826;SDS011;11580;52.562;13.418;2023-07-29T07:27:17;4.43;;;4.10;;
22826;SDS011;11580;52.562;13.418;2023-07-29T07:29:44;4.10;;;3.90;;
22826;SDS011;11580;52.562;13.418;2023-07-29T07:32:12;6.27;;;5.87;;
22826;SDS011;11580;52.562;13.418;2023-07-29T07:34:39;7.03;;;6.67;;
22826;SDS011;11580;52.562;13.418;2023-07-29T07:37:06;8.57;;;8.07;;
22826;SDS011;11580;52.562;13.418;2023-07-29T07:39:33;7.97;;;7.50;;
22826;SDS011;11580;52.562;13.418;2023-07-29T07:42:02;7.70;;;7.30;;
22826;SDS011;11580;52.562;13.418;2023-07-29T07:44:29;7.63;;;7.23;;
22826;SDS011;11580;52.562;13.418;2023-07-29T07:46:56;7.50;;;7.10;;
22826;SDS011;11580;52.562;13.418;2023-07-29T07:49:23;7.97;;;7.47;;
22826;SDS011;11580;52.562;13.418;2023-07-29T07:51:51;6.63;;;6.23;;
22826;SDS011;11580;52.562;13.418;2023-07-29T07:54:18;7.20;;;6.80;;
22826;SDS011;11580;52.562;13.418;2023-07-29T07:56:45;6.23;;;5.93;;
22826;SDS011;11580;52.562;13.418;2023-07-29T07:59:13;5.90;;;5.60;;
22826;SDS011;11580;52.562;13.418;2023-07-29T08:01:40;6.40;;;6.10;;
22826;SDS011;11580;52.562;13.418;2023-07-29T08:04:08;6.40;;;6.10;;
22826;SDS011;11580;52.562;13.418;2023-07-29T08:06:35;7.20;;;6.80;;
22826;SDS011;11580;52.562;13.418;2023-07-29T08:09:02;6.70;;;6.30;;
22826;SDS011;11580;52.562;13.418;2023-07-29T08:11:29;7.53;;;7.13;;
22826;SDS011;11580;52.562;13.418;2023-07-29T08:13:56;7.23;;;6.83;;
22826;SDS011;11580;52.562;13.418;2023-07-29T08:16:26;6.00;;;5.60;;
22826;SDS011;11580;52.562;13.418;2023-07-29T08:18:53;6.13;;;5.83;;
22826;SDS011;11580;52.562;13.418;2023-07-29T08:21:20;6.27;;;5.97;;
22826;SDS011;11580;52.562;13.418;2023-07-29T08:23:47;6.10;;;5.70;;
22826;SDS011;11580;52.562;13.418;2023-07-29T08:26:14;6.10;;;5.80;;
22826;SDS011;11580;52.562;13.418;2023-07-29T08:28:42;6.17;;;5.77;;
22826;SDS011;11580;52.562;13.418;2023-07-29T08:31:09;5.60;;;5.30;;
22826;SDS011;11580;52.562;13.418;2023-07-29T08:33:37;5.93;;;5.63;;
22826;SDS011;11580;52.562;13.418;2023-07-29T08:36:04;5.07;;;4.80;;
22826;SDS011;11580;52.562;13.418;2023-07-29T08:38:31;5.00;;;4.70;;
22826;SDS011;11580;52.562;13.418;2023-07-29T08:41:10;5.20;;;4.90;;
22826;SDS011;11580;52.562;13.418;2023-07-29T08:43:43;5.37;;;5.07;;
22826;SDS011;11580;52.562;13.418;2023-07-29T08:46:18;4.90;;;4.60;;
22826;SDS011;11580;52.562;13.418;2023-07-29T08:48:47;4.37;;;4.17;;
22826;SDS011;11580;52.562;13.418;2023-07-29T08:51:15;4.60;;;4.40;;
22826;SDS011;11580;52.562;13.418;2023-07-29T08:53:45;5.10;;;4.80;;
22826;SDS011;11580;52.562;13.418;2023-07-29T08:56:13;4.57;;;4.30;;
22826;SDS011;11580;52.562;13.418;2023-07-29T08:58:41;4.37;;;4.17;;
22826;SDS011;11580;52.562;13.418;2023-07-29T09:01:09;3.67;;;3.47;;
22826;SDS011;11580;52.562;13.418;2023-07-29T09:03:36;3.90;;;3.70;;
22826;SDS011;11580;52.562;13.418;2023-07-29T09:06:05;4.27;;;3.97;;
22826;SDS011;11580;52.562;13.418;2023-07-29T09:08:34;3.10;;;2.97;;
22826;SDS011;11580;52.562;13.418;2023-07-29T09:11:01;3.93;;;3.73;;
22826;SDS011;11580;52.562;13.418;2023-07-29T09:13:29;4.47;;;4.23;;
22826;SDS011;11580;52.562;13.418;2023-07-29T09:15:57;3.27;;;3.07;;
22826;SDS011;11580;52.562;13.418;2023-07-29T09:18:25;3.60;;;3.30;;
22826;SDS011;11580;52.562;13.418;2023-07-29T09:20:54;4.40;;;4.20;;
22826;SDS011;11580;52.562;13.418;2023-07-29T09:23:27;3.63;;;3.43;;
22826;SDS011;11580;52.562;13.418;2023-07-29T09:26:00;3.60;;;3.40;;
22826;SDS011;11580;52.562;13.418;2023-07-29T09:28:28;3.40;;;3.20;;
22826;SDS011;11580;52.562;13.418;2023-07-29T09:31:00;3.57;;;3.37;;
22826;SDS011;11580;52.562;13.418;2023-07-29T09:33:28;3.70;;;3.50;;
22826;SDS011;11580;52.562;13.418;2023-07-29T09:35:57;3.50;;;3.30;;
22826;SDS011;11580;52.562;13.418;2023-07-29T09:38:29;3.27;;;3.17;;
22826;SDS011;11580;52.562;13.418;2023-07-29T09:40:56;3.27;;;3.10;;
22826;SDS011;11580;52.562;13.418;2023-07-29T09:43:28;3.03;;;2.90;;
22826;SDS011;11580;52.562;13.418;2023-07-29T09:45:59;3.00;;;2.80;;
22826;SDS011;11580;52.562;13.418;2023-07-29T09:48:27;3.63;;;3.30;;
22826;SDS011;11580;52.562;13.418;2023-07-29T09:50:58;3.20;;;3.00;;
22826;SDS011;11580;52.562;13.418;2023-07-29T09:53:25;3.53;;;3.33;;
22826;SDS011;11580;52.562;13.418;2023-07-29T09:55:54;3.43;;;3.23;;
22826;SDS011;11580;52.562;13.418;2023-07-29T09:58:25;3.40;;;3.20;;
22826;SDS011;11580;52.562;13.418;2023-07-29T10:00:53;2.83;;;2.73;;
22826;SDS011;11580;52.562;13.418;2023-07-29T10:03:21;3.53;;;3.33;;
22826;SDS011;11580;52.562;13.418;2023-07-29T10:05:48;3.37;;;3.07;;
22826;SDS011;11580;52.562;13.418;2023-07-29T10:08:16;3.40;;;2.90;;
22826;SDS011;11580;52.562;13.418;2023-07-29T10:10:46;3.10;;;2.90;;
22826;SDS011;11580;52.562;13.418;2023-07-29T10:13:17;3.07;;;2.90;;
22826;SDS011;11580;52.562;13.418;2023-07-29T10:15:44;3.37;;;3.17;;
22826;SDS011;11580;52.562;13.418;2023-07-29T10:18:13;3.20;;;3.00;;
22826;SDS011;11580;52.562;13.418;2023-07-29T10:20:42;3.30;;;3.10;;
22826;SDS011;11580;52.562;13.418;2023-07-29T10:23:10;2.77;;;2.67;;
22826;SDS011;11580;52.562;13.418;2023-07-29T10:25:42;2.80;;;2.70;;
22826;SDS011;11580;52.562;13.418;2023-07-29T10:28:15;3.20;;;3.10;;
22826;SDS011;11580;52.562;13.418;2023-07-29T10:30:49;2.37;;;2.27;;
22826;SDS011;11580;52.562;13.418;2023-07-29T10:33:18;2.63;;;2.50;;
22826;SDS011;11580;52.562;13.418;2023-07-29T10:35:45;2.57;;;2.47;;
22826;SDS011;11580;52.562;13.418;2023-07-29T10:38:13;2.50;;;2.40;;
22826;SDS011;11580;52.562;13.418;2023-07-29T10:40:44;2.67;;;2.57;;
22826;SDS011;11580;52.562;13.418;2023-07-29T10:43:18;3.00;;;2.80;;
22826;SDS011;11580;52.562;13.418;2023-07-29T10:45:51;2.77;;;2.57;;
22826;SDS011;11580;52.562;13.418;2023-07-29T10:51:22;2.60;;;2.40;;
22826;SDS011;11580;52.562;13.418;2023-07-29T10:53:54;2.70;;;2.50;;
22826;SDS011;11580;52.562;13.418;2023-07-29T10:56:24;2.30;;;2.20;;
22826;SDS011;11580;52.562;13.418;2023-07-29T10:58:56;2.90;;;2.70;;
22826;SDS011;11580;52.562;13.418;2023-07-29T11:01:28;2.50;;;2.40;;
22826;SDS011;11580;52.562;13.418;2023-07-29T11:04:01;2.33;;;2.23;;
22826;SDS011;11580;52.562;13.418;2023-07-29T11:07:01;2.60;;;2.40;;
22826;SDS011;11580;52.562;13.418;2023-07-29T11:09:52;2.50;;;2.40;;
22826;SDS011;11580;52.562;13.418;2023-07-29T11:15:21;2.10;;;2.00;;
22826;SDS011;11580;52.562;13.418;2023-07-29T11:17:51;1.90;;;1.80;;
22826;SDS011;11580;52.562;13.418;2023-07-29T11:20:21;2.00;;;1.90;;
22826;SDS011;11580;52.562;13.418;2023-07-29T11:22:50;1.97;;;1.87;;
22826;SDS011;11580;52.562;13.418;2023-07-29T11:25:20;2.00;;;1.63;;
22826;SDS011;11580;52.562;13.418;2023-07-29T11:27:50;2.70;;;1.57;;
22826;SDS011;11580;52.562;13.418;2023-07-29T11:30:21;1.00;;;0.80;;
22826;SDS011;11580;52.562;13.418;2023-07-29T11:32:48;0.60;;;0.60;;
22826;SDS011;11580;52.562;13.418;2023-07-29T11:35:17;0.67;;;0.57;;
22826;SDS011;11580;52.562;13.418;2023-07-29T11:37:45;0.40;;;0.40;;
22826;SDS011;11580;52.562;13.418;2023-07-29T11:40:14;0.40;;;0.37;;
22826;SDS011;11580;52.562;13.418;2023-07-29T11:42:43;0.50;;;0.40;;
22826;SDS011;11580;52.562;13.418;2023-07-29T11:45:12;0.40;;;0.30;;
22826;SDS011;11580;52.562;13.418;2023-07-29T11:47:41;0.40;;;0.40;;
22826;SDS011;11580;52.562;13.418;2023-07-29T11:50:09;0.40;;;0.30;;
22826;SDS011;11580;52.562;13.418;2023-07-29T11:52:39;0.43;;;0.40;;
22826;SDS011;11580;52.562;13.418;2023-07-29T11:55:08;0.40;;;0.30;;
22826;SDS011;11580;52.562;13.418;2023-07-29T11:57:36;0.40;;;0.40;;
22826;SDS011;11580;52.562;13.418;2023-07-29T12:00:05;0.40;;;0.30;;
22826;SDS011;11580;52.562;13.418;2023-07-29T12:02:38;0.30;;;0.30;;
22826;SDS011;11580;52.562;13.418;2023-07-29T12:05:08;0.30;;;0.30;;
22826;SDS011;11580;52.562;13.418;2023-07-29T12:07:37;0.30;;;0.30;;
22826;SDS011;11580;52.562;13.418;2023-07-29T12:10:05;0.63;;;0.57;;
22826;SDS011;11580;52.562;13.418;2023-07-29T12:12:36;0.87;;;0.70;;
22826;SDS011;11580;52.562;13.418;2023-07-29T12:15:10;1.03;;;0.90;;
22826;SDS011;11580;52.562;13.418;2023-07-29T12:17:39;1.20;;;0.77;;
22826;SDS011;11580;52.562;13.418;2023-07-29T12:20:09;0.97;;;0.83;;
22826;SDS011;11580;52.562;13.418;2023-07-29T12:22:37;1.07;;;0.90;;
22826;SDS011;11580;52.562;13.418;2023-07-29T12:25:05;1.70;;;0.97;;
22826;SDS011;11580;52.562;13.418;2023-07-29T12:27:33;0.90;;;0.90;;
22826;SDS011;11580;52.562;13.418;2023-07-29T12:30:01;1.20;;;1.10;;
22826;SDS011;11580;52.562;13.418;2023-07-29T12:32:29;1.23;;;1.13;;
22826;SDS011;11580;52.562;13.418;2023-07-29T12:34:56;1.03;;;0.93;;
22826;SDS011;11580;52.562;13.418;2023-07-29T12:37:32;1.43;;;1.17;;
22826;SDS011;11580;52.562;13.418;2023-07-29T12:39:59;1.57;;;1.47;;
22826;SDS011;11580;52.562;13.418;2023-07-29T12:42:26;1.90;;;1.70;;
22826;SDS011;11580;52.562;13.418;2023-07-29T12:44:54;2.20;;;2.00;;
22826;SDS011;11580;52.562;13.418;2023-07-29T12:47:21;2.40;;;2.20;;
22826;SDS011;11580;52.562;13.418;2023-07-29T12:49:48;1.77;;;1.67;;
22826;SDS011;11580;52.562;13.418;2023-07-29T12:52:16;1.93;;;1.80;;
22826;SDS011;11580;52.562;13.418;2023-07-29T12:54:44;2.07;;;1.90;;
22826;SDS011;11580;52.562;13.418;2023-07-29T12:57:11;2.13;;;2.03;;
22826;SDS011;11580;52.562;13.418;2023-07-29T12:59:38;2.70;;;2.50;;
22826;SDS011;11580;52.562;13.418;2023-07-29T13:02:06;2.63;;;2.43;;
22826;SDS011;11580;52.562;13.418;2023-07-29T13:04:34;2.83;;;2.63;;
22826;SDS011;11580;52.562;13.418;2023-07-29T13:07:01;2.87;;;2.67;;
22826;SDS011;11580;52.562;13.418;2023-07-29T13:09:28;3.17;;;2.97;;
22826;SDS011;11580;52.562;13.418;2023-07-29T13:11:56;3.60;;;3.40;;
22826;SDS011;11580;52.562;13.418;2023-07-29T13:14:23;4.03;;;3.73;;
22826;SDS011;11580;52.562;13.418;2023-07-29T13:16:52;3.73;;;3.53;;
22826;SDS011;11580;52.562;13.418;2023-07-29T13:19:19;3.70;;;3.50;;
22826;SDS011;11580;52.562;13.418;2023-07-29T13:21:46;4.30;;;4.00;;
22826;SDS011;11580;52.562;13.418;2023-07-29T13:24:13;4.53;;;4.20;;
22826;SDS011;11580;52.562;13.418;2023-07-29T13:26:40;3.73;;;3.53;;
22826;SDS011;11580;52.562;13.418;2023-07-29T13:29:09;3.60;;;3.40;;
22826;SDS011;11580;52.562;13.418;2023-07-29T13:31:36;3.53;;;3.33;;
22826;SDS011;11580;52.562;13.418;2023-07-29T13:34:03;4.30;;;4.00;;
22826;SDS011;11580;52.562;13.418;2023-07-29T13:36:30;3.50;;;3.30;;
22826;SDS011;11580;52.562;13.418;2023-07-29T13:38:57;4.07;;;3.77;;
22826;SDS011;11580;52.562;13.418;2023-07-29T13:41:24;3.50;;;3.30;;
22826;SDS011;11580;52.562;13.418;2023-07-29T13:43:51;3.13;;;3.03;;
22826;SDS011;11580;52.562;13.418;2023-07-29T13:46:20;3.70;;;3.43;;
22826;SDS011;11580;52.562;13.418;2023-07-29T13:48:47;3.57;;;3.37;;
22826;SDS011;11580;52.562;13.418;2023-07-29T13:51:14;2.60;;;2.50;;
22826;SDS011;11580;52.562;13.418;2023-07-29T13:53:41;3.03;;;2.83;;
22826;SDS011;11580;52.562;13.418;2023-07-29T13:56:09;2.77;;;2.57;;
22826;SDS011;11580;52.562;13.418;2023-07-29T13:58:36;2.30;;;2.20;;
22826;SDS011;11580;52.562;13.418;2023-07-29T14:01:03;2.73;;;2.63;;
22826;SDS011;11580;52.562;13.418;2023-07-29T14:03:31;2.70;;;2.50;;
22826;SDS011;11580;52.562;13.418;2023-07-29T14:05:59;2.30;;;2.20;;
22826;SDS011;11580;52.562;13.418;2023-07-29T14:08:26;2.47;;;2.37;;
22826;SDS011;11580;52.562;13.418;2023-07-29T14:10:53;1.90;;;1.80;;
22826;SDS011;11580;52.562;13.418;2023-07-29T14:13:20;2.20;;;2.10;;
22826;SDS011;11580;52.562;13.418;2023-07-29T14:15:47;2.10;;;2.00;;
22826;SDS011;11580;52.562;13.418;2023-07-29T14:18:14;2.20;;;2.10;;
22826;SDS011;11580;52.562;13.418;2023-07-29T14:20:43;1.83;;;1.73;;
22826;SDS011;11580;52.562;13.418;2023-07-29T14:23:10;1.80;;;1.70;;
22826;SDS011;11580;52.562;13.418;2023-07-29T14:25:37;1.83;;;1.70;;
22826;SDS011;11580;52.562;13.418;2023-07-29T14:28:04;1.63;;;1.53;;
22826;SDS011;11580;52.562;13.418;2023-07-29T14:30:31;1.63;;;1.53;;
22826;SDS011;11580;52.562;13.418;2023-07-29T14:32:58;1.60;;;1.50;;
22826;SDS011;11580;52.562;13.418;2023-07-29T14:35:26;1.57;;;1.47;;
22826;SDS011;11580;52.562;13.418;2023-07-29T14:37:54;1.60;;;1.50;;
22826;SDS011;11580;52.562;13.418;2023-07-29T14:40:21;2.00;;;1.90;;
22826;SDS011;11580;52.562;13.418;2023-07-29T14:42:49;1.60;;;1.50;;
22826;SDS011;11580;52.562;13.418;2023-07-29T14:45:16;2.63;;;1.43;;
22826;SDS011;11580;52.562;13.418;2023-07-29T14:47:43;1.40;;;1.30;;